Terminal Aerodrome Forecast
Issued by NWS

Home | Current Version | Previous Version | Text Only | Print | Product List | Glossary Off
Versions: 1 2 3 4 5 6 7 8 9 10 11 12 13 14 15 16 17 18 19 20 21 22 23 24 25 26 27 28 29 30 31 32

000
FTUS43 KICT 182041 AAA
TAFCNU
TAF AMD
KCNU 182041Z 1821/1918 VRB03KT 4SM BR OVC004
      TEMPO 1822/1901 1SM BR OVC003
     FM190300 04004KT 3SM BR OVC004
     FM190800 04004KT 1SM BR OVC002
     FM191500 08004KT 3SM BR OVC004=

USA.gov is the U.S. government's official web portal to all federal, state and local government web resources and services.